createdAt,value
2019-05-23T00:01:41.966Z,11.90
2019-05-23T00:04:17.920Z,11.90
2019-05-23T00:06:45.785Z,11.90
2019-05-23T00:09:13.096Z,11.90
2019-05-23T00:11:59.079Z,11.80
2019-05-23T00:14:30.779Z,11.80
2019-05-23T00:16:59.284Z,11.80
2019-05-23T00:19:27.345Z,11.80
2019-05-23T00:21:55.570Z,11.80
2019-05-23T00:24:23.359Z,11.80
2019-05-23T00:27:01.660Z,11.80
2019-05-23T00:29:28.623Z,11.80
2019-05-23T00:32:00.308Z,11.80
2019-05-23T00:34:28.766Z,11.70
2019-05-23T00:36:57.046Z,11.70
2019-05-23T00:39:24.446Z,11.70
2019-05-23T00:41:53.182Z,11.70
2019-05-23T00:44:20.200Z,11.60
2019-05-23T00:46:48.167Z,11.60
2019-05-23T00:49:16.292Z,11.60
2019-05-23T00:51:45.845Z,11.60
2019-05-23T00:54:13.941Z,11.60
2019-05-23T00:56:42.310Z,11.60
2019-05-23T00:59:25.638Z,11.50
2019-05-23T01:01:40.874Z,11.50
2019-05-23T01:04:10.432Z,11.50
2019-05-23T01:06:37.915Z,11.50
2019-05-23T01:09:06.392Z,11.50
2019-05-23T01:11:34.361Z,11.50
2019-05-23T01:14:01.707Z,11.50
2019-05-23T01:16:30.119Z,11.50
2019-05-23T01:18:57.374Z,11.40
2019-05-23T01:21:44.856Z,11.40
2019-05-23T01:24:29.974Z,11.40
2019-05-23T01:26:57.938Z,11.30
2019-05-23T01:29:26.416Z,11.30
2019-05-23T01:31:58.527Z,11.30
2019-05-23T01:34:26.609Z,11.30
2019-05-23T01:36:55.283Z,11.30
2019-05-23T01:39:23.108Z,11.30
2019-05-23T01:41:50.274Z,11.20
2019-05-23T01:44:17.867Z,11.20
2019-05-23T01:46:45.132Z,11.20
2019-05-23T01:49:12.918Z,11.20
2019-05-23T01:51:40.229Z,11.20
2019-05-23T01:54:07.197Z,11.10
2019-05-23T01:56:35.042Z,11.10
2019-05-23T01:59:02.192Z,11.20
2019-05-23T02:01:31.233Z,11.20
2019-05-23T02:03:58.640Z,11.20
2019-05-23T02:06:25.996Z,11.10
2019-05-23T02:08:54.037Z,11.10
2019-05-23T02:11:22.362Z,11.00
2019-05-23T02:13:49.553Z,11.00
2019-05-23T02:16:17.730Z,11.00
2019-05-23T02:18:46.008Z,11.00
2019-05-23T02:21:15.347Z,11.00
2019-05-23T02:23:42.702Z,11.00
2019-05-23T02:26:10.728Z,11.00
2019-05-23T02:28:38.045Z,11.00
2019-05-23T02:31:05.306Z,11.00
2019-05-23T02:33:32.954Z,11.00
2019-05-23T02:36:00.197Z,10.90
2019-05-23T02:38:29.330Z,10.90
2019-05-23T02:41:01.708Z,11.00
2019-05-23T02:43:33.161Z,10.90
2019-05-23T02:46:06.716Z,10.90
2019-05-23T02:48:41.893Z,10.90
2019-05-23T02:51:15.890Z,10.80
2019-05-23T02:53:43.642Z,10.80
2019-05-23T02:56:14.216Z,10.80
2019-05-23T02:59:02.490Z,10.80
2019-05-23T03:01:42.408Z,10.80
2019-05-23T03:04:12.221Z,10.70
2019-05-23T03:06:40.929Z,10.70
2019-05-23T03:09:11.305Z,10.70
2019-05-23T03:11:43.676Z,10.70
2019-05-23T03:14:11.060Z,10.70
2019-05-23T03:16:40.837Z,10.70
2019-05-23T03:19:13.431Z,10.70
2019-05-23T03:21:42.387Z,10.60
2019-05-23T03:24:11.417Z,10.60
2019-05-23T03:27:05.614Z,10.60
2019-05-23T03:29:33.895Z,10.60
2019-05-23T03:32:15.046Z,10.60
2019-05-23T03:35:02.748Z,10.60
2019-05-23T03:37:29.787Z,10.60
2019-05-23T03:39:57.657Z,10.60
2019-05-23T03:42:25.817Z,10.60
2019-05-23T03:44:53.966Z,10.60
2019-05-23T03:47:21.756Z,10.60
2019-05-23T03:49:49.637Z,10.60
2019-05-23T03:52:18.438Z,10.60
2019-05-23T03:54:46.313Z,10.60
2019-05-23T03:57:14.484Z,10.70
2019-05-23T03:59:42.789Z,10.70
2019-05-23T04:02:11.731Z,10.70
2019-05-23T04:04:40.042Z,10.70
2019-05-23T04:07:10.272Z,10.70
2019-05-23T04:09:37.359Z,10.70
2019-05-23T04:12:05.425Z,10.70
2019-05-23T04:14:33.221Z,10.80
2019-05-23T04:17:00.744Z,10.80
2019-05-23T04:19:28.009Z,10.80
2019-05-23T04:21:55.285Z,10.90
2019-05-23T04:24:23.008Z,10.90
2019-05-23T04:26:50.274Z,11.00
2019-05-23T04:29:17.604Z,11.00
2019-05-23T04:31:44.780Z,11.00
2019-05-23T04:34:12.032Z,11.10
2019-05-23T04:36:40.748Z,11.10
2019-05-23T04:39:08.520Z,11.10
2019-05-23T04:41:35.724Z,11.20
2019-05-23T04:44:03.702Z,11.20
2019-05-23T04:46:31.617Z,11.30
2019-05-23T04:48:58.994Z,11.40
2019-05-23T04:51:26.186Z,11.40
2019-05-23T04:53:54.092Z,11.40
2019-05-23T04:56:21.725Z,11.50
2019-05-23T04:58:50.515Z,11.50
2019-05-23T05:01:18.375Z,11.60
2019-05-23T05:03:46.048Z,11.70
2019-05-23T05:06:14.308Z,11.80
2019-05-23T05:08:41.365Z,11.90
2019-05-23T05:11:08.955Z,11.90
2019-05-23T05:13:36.177Z,12.00
2019-05-23T05:16:04.452Z,12.10
2019-05-23T05:18:32.100Z,12.20
2019-05-23T05:20:59.297Z,12.20
2019-05-23T05:23:26.807Z,12.30
2019-05-23T05:25:53.961Z,12.30
2019-05-23T05:28:21.674Z,12.30
2019-05-23T05:30:49.457Z,12.40
2019-05-23T05:33:17.037Z,12.40
2019-05-23T05:35:44.089Z,12.50
2019-05-23T05:38:11.913Z,12.50
2019-05-23T05:40:39.085Z,12.60
2019-05-23T05:43:06.520Z,12.70
2019-05-23T05:45:34.036Z,12.70
2019-05-23T05:48:01.798Z,12.80
2019-05-23T05:50:28.851Z,12.80
2019-05-23T05:52:55.949Z,12.90
2019-05-23T05:55:22.980Z,13.00
2019-05-23T05:57:50.161Z,13.00
2019-05-23T06:00:28.338Z,13.10
2019-05-23T06:03:04.171Z,13.20
2019-05-23T06:05:36.462Z,13.30
2019-05-23T06:08:04.273Z,13.40
2019-05-23T06:10:31.187Z,13.60
2019-05-23T06:12:58.161Z,13.70
2019-05-23T06:15:26.019Z,13.80
2019-05-23T06:17:53.372Z,13.90
2019-05-23T06:20:20.398Z,14.30
2019-05-23T06:22:48.021Z,15.40
2019-05-23T06:25:15.613Z,16.20
2019-05-23T06:27:42.720Z,16.20
2019-05-23T06:30:11.822Z,16.00
2019-05-23T06:32:39.242Z,15.90
2019-05-23T06:35:06.815Z,16.10
2019-05-23T06:37:34.654Z,16.50
2019-05-23T06:40:02.847Z,16.60
2019-05-23T06:42:29.913Z,16.70
2019-05-23T06:44:57.576Z,17.20
2019-05-23T06:47:24.717Z,17.90
2019-05-23T06:49:51.803Z,18.40
2019-05-23T06:52:18.869Z,19.00
2019-05-23T06:54:46.041Z,19.80
2019-05-23T06:57:13.133Z,20.10
2019-05-23T06:59:40.201Z,20.00
2019-05-23T07:02:07.264Z,20.40
2019-05-23T07:04:34.311Z,21.10
2019-05-23T07:07:01.641Z,22.20
2019-05-23T07:09:28.570Z,23.00
2019-05-23T07:11:58.038Z,22.70
2019-05-23T07:14:25.049Z,22.50
2019-05-23T07:16:52.113Z,22.40
2019-05-23T07:19:20.387Z,23.10
2019-05-23T07:21:47.806Z,23.70
2019-05-23T07:24:15.299Z,23.10
2019-05-23T07:26:44.260Z,23.20
2019-05-23T07:29:11.516Z,22.80
2019-05-23T07:31:38.618Z,22.10
2019-05-23T07:34:05.607Z,21.60
2019-05-23T07:36:32.584Z,21.00
2019-05-23T07:39:00.250Z,20.70
2019-05-23T07:41:27.967Z,20.40
2019-05-23T07:43:55.070Z,20.20
2019-05-23T07:46:22.978Z,20.30
2019-05-23T07:48:50.509Z,20.20
2019-05-23T07:51:17.527Z,20.30
2019-05-23T07:53:52.563Z,20.40
2019-05-23T07:56:24.570Z,21.00
2019-05-23T07:58:51.763Z,21.40
2019-05-23T08:01:20.872Z,21.60
2019-05-23T08:03:51.174Z,21.60
2019-05-23T08:06:18.834Z,22.40
2019-05-23T08:08:46.141Z,23.70
2019-05-23T08:11:13.341Z,25.50
2019-05-23T08:13:40.658Z,26.30
2019-05-23T08:16:07.975Z,26.00
2019-05-23T08:18:35.479Z,26.20
2019-05-23T08:21:02.438Z,25.50
2019-05-23T08:23:29.516Z,24.80
2019-05-23T08:25:56.886Z,24.10
2019-05-23T08:28:24.185Z,23.80
2019-05-23T08:30:51.379Z,23.30
2019-05-23T08:33:18.717Z,22.90
2019-05-23T08:35:45.785Z,22.70
2019-05-23T08:38:13.377Z,22.80
2019-05-23T08:40:40.860Z,22.80
2019-05-23T08:43:08.816Z,22.90
2019-05-23T08:45:36.488Z,23.00
2019-05-23T08:48:07.593Z,22.80
2019-05-23T08:50:34.760Z,22.50
2019-05-23T08:53:01.834Z,22.40
2019-05-23T08:55:34.091Z,22.80
2019-05-23T08:58:02.153Z,23.10
2019-05-23T09:00:31.734Z,23.00
2019-05-23T09:02:59.280Z,23.30
2019-05-23T09:05:28.636Z,24.10
2019-05-23T09:07:56.363Z,24.30
2019-05-23T09:10:23.892Z,25.30
2019-05-23T09:12:51.361Z,25.60
2019-05-23T09:15:18.658Z,25.70
2019-05-23T09:17:52.807Z,27.00
2019-05-23T09:20:16.123Z,27.40
2019-05-23T09:22:43.733Z,26.90
2019-05-23T09:25:18.290Z,26.10
2019-05-23T09:27:45.793Z,25.30
2019-05-23T09:30:13.441Z,24.70
2019-05-23T09:32:40.604Z,24.20
2019-05-23T09:35:20.492Z,23.70
2019-05-23T09:37:37.972Z,23.30
2019-05-23T09:40:05.938Z,23.10
2019-05-23T09:42:32.963Z,22.80
2019-05-23T09:45:00.110Z,22.70
2019-05-23T09:47:27.184Z,22.60
2019-05-23T09:49:54.485Z,22.40
2019-05-23T09:52:23.804Z,22.30
2019-05-23T09:54:50.857Z,22.10
2019-05-23T09:57:19.393Z,22.10
2019-05-23T09:59:46.353Z,22.00
2019-05-23T10:02:14.606Z,22.10
2019-05-23T10:04:41.618Z,22.10
2019-05-23T10:07:09.025Z,22.10
2019-05-23T10:09:36.253Z,22.20
2019-05-23T10:12:03.510Z,22.20
2019-05-23T10:14:32.416Z,22.10
2019-05-23T10:16:59.411Z,22.20
2019-05-23T10:19:26.580Z,22.20
2019-05-23T10:21:54.292Z,22.20
2019-05-23T10:24:21.918Z,22.20
2019-05-23T10:26:48.878Z,22.10
2019-05-23T10:29:16.076Z,22.10
2019-05-23T10:31:43.090Z,22.00
2019-05-23T10:34:10.505Z,22.00
2019-05-23T10:36:37.426Z,22.00
2019-05-23T10:39:07.133Z,21.90
2019-05-23T10:41:34.089Z,21.90
2019-05-23T10:44:01.685Z,21.90
2019-05-23T10:46:28.787Z,22.00
2019-05-23T10:48:56.197Z,22.00
2019-05-23T10:51:23.212Z,22.00
2019-05-23T10:53:50.235Z,22.10
2019-05-23T10:56:20.633Z,22.00
2019-05-23T10:58:47.122Z,22.00
2019-05-23T11:01:14.744Z,22.00
2019-05-23T11:03:41.917Z,22.10
2019-05-23T11:06:16.027Z,22.00
2019-05-23T11:08:38.882Z,22.10
2019-05-23T11:11:25.917Z,22.00
2019-05-23T11:13:53.232Z,22.00
2019-05-23T11:16:20.332Z,22.00
2019-05-23T11:18:47.433Z,22.00
2019-05-23T11:21:14.618Z,22.10
2019-05-23T11:23:43.668Z,22.10
2019-05-23T11:26:11.905Z,22.10
2019-05-23T11:28:39.327Z,22.10
2019-05-23T11:31:07.886Z,22.10
2019-05-23T11:33:35.646Z,22.10
2019-05-23T11:36:03.227Z,22.00
2019-05-23T11:38:30.814Z,22.00
2019-05-23T11:40:57.782Z,22.00
2019-05-23T11:43:25.357Z,22.10
2019-05-23T11:45:54.774Z,22.10
2019-05-23T11:48:21.911Z,22.10
2019-05-23T11:50:49.200Z,22.20
2019-05-23T11:53:16.316Z,22.30
2019-05-23T11:55:43.549Z,22.30
2019-05-23T11:58:11.648Z,22.40
2019-05-23T12:01:10.507Z,22.40
2019-05-23T12:03:38.012Z,22.40
2019-05-23T12:06:05.897Z,22.50
2019-05-23T12:08:35.639Z,22.60
2019-05-23T12:11:02.932Z,22.60
2019-05-23T12:13:30.350Z,22.70
2019-05-23T12:15:57.589Z,22.70
2019-05-23T12:18:24.867Z,22.80
2019-05-23T12:20:52.162Z,22.80
2019-05-23T12:23:19.292Z,22.90
2019-05-23T12:25:46.277Z,23.00
2019-05-23T12:28:13.500Z,22.90
2019-05-23T12:30:41.027Z,22.90
2019-05-23T12:33:11.104Z,22.90
2019-05-23T12:35:38.172Z,22.90
2019-05-23T12:38:05.120Z,23.00
2019-05-23T12:40:32.243Z,23.10
2019-05-23T12:42:59.310Z,23.00
2019-05-23T12:45:26.398Z,22.90
2019-05-23T12:47:58.343Z,22.90
2019-05-23T12:50:27.291Z,23.00
2019-05-23T12:52:54.281Z,23.10
2019-05-23T12:55:24.369Z,23.10
2019-05-23T12:57:51.902Z,23.20
2019-05-23T13:00:39.880Z,23.30
2019-05-23T13:03:07.970Z,23.30
2019-05-23T13:05:35.799Z,23.40
2019-05-23T13:08:06.058Z,23.40
2019-05-23T13:10:32.594Z,23.40
2019-05-23T13:12:59.643Z,23.30
2019-05-23T13:15:27.872Z,23.30
2019-05-23T13:17:54.924Z,23.20
2019-05-23T13:20:21.917Z,23.20
2019-05-23T13:22:48.904Z,23.10
2019-05-23T13:25:16.469Z,23.10
2019-05-23T13:27:43.820Z,23.00
2019-05-23T13:30:10.954Z,22.90
2019-05-23T13:32:37.865Z,23.00
2019-05-23T13:35:05.398Z,23.10
2019-05-23T13:37:32.600Z,23.30
2019-05-23T13:39:59.675Z,23.20
2019-05-23T13:42:26.893Z,23.30
2019-05-23T13:44:53.936Z,23.30
2019-05-23T13:47:20.916Z,23.30
2019-05-23T13:49:47.928Z,23.30
2019-05-23T13:52:14.873Z,23.30
2019-05-23T13:54:41.937Z,23.30
2019-05-23T13:57:09.172Z,23.40
2019-05-23T13:59:37.269Z,23.40
2019-05-23T14:02:06.433Z,23.40
2019-05-23T14:04:33.522Z,23.50
2019-05-23T14:07:00.706Z,23.60
2019-05-23T14:09:28.295Z,23.70
2019-05-23T14:12:20.109Z,23.70
2019-05-23T14:14:24.876Z,23.70
2019-05-23T14:16:53.808Z,23.80
2019-05-23T14:19:20.877Z,23.60
2019-05-23T14:21:47.876Z,23.40
2019-05-23T14:24:17.548Z,23.40
2019-05-23T14:26:49.666Z,23.30
2019-05-23T14:29:16.745Z,23.10
2019-05-23T14:31:51.521Z,23.00
2019-05-23T14:34:18.562Z,22.90
2019-05-23T14:36:47.516Z,22.90
2019-05-23T14:39:19.984Z,22.90
2019-05-23T14:41:49.030Z,22.90
2019-05-23T14:44:16.091Z,22.80
2019-05-23T14:46:45.291Z,22.90
2019-05-23T14:49:15.305Z,22.90
2019-05-23T14:51:44.177Z,23.00
2019-05-23T14:54:13.651Z,23.10
2019-05-23T14:56:46.707Z,23.20
2019-05-23T14:59:16.120Z,23.20
2019-05-23T15:01:43.344Z,23.20
2019-05-23T15:04:10.898Z,23.10
2019-05-23T15:06:38.627Z,23.10
2019-05-23T15:09:07.514Z,23.10
2019-05-23T15:11:35.870Z,23.10
2019-05-23T15:14:04.926Z,23.10
2019-05-23T15:16:32.669Z,23.10
2019-05-23T15:18:59.796Z,23.10
2019-05-23T15:21:26.861Z,23.00
2019-05-23T15:23:55.159Z,23.00
2019-05-23T15:26:24.096Z,22.90
2019-05-23T15:28:51.438Z,22.90
2019-05-23T15:31:19.179Z,22.90
2019-05-23T15:33:47.621Z,22.80
2019-05-23T15:36:14.783Z,22.70
2019-05-23T15:38:41.918Z,22.60
2019-05-23T15:41:09.429Z,22.60
2019-05-23T15:43:38.282Z,22.60
2019-05-23T15:46:05.521Z,22.60
2019-05-23T15:48:32.684Z,22.60
2019-05-23T15:51:00.261Z,22.70
2019-05-23T15:53:29.341Z,22.70
2019-05-23T15:56:16.852Z,22.80
2019-05-23T15:58:32.388Z,22.80
2019-05-23T16:01:01.611Z,22.70
2019-05-23T16:03:31.705Z,22.70
2019-05-23T16:05:59.937Z,22.70
2019-05-23T16:08:30.042Z,22.60
2019-05-23T16:10:57.074Z,22.50
2019-05-23T16:13:24.685Z,22.50
2019-05-23T16:15:51.964Z,22.60
2019-05-23T16:18:21.821Z,22.60
2019-05-23T16:20:48.974Z,22.50
2019-05-23T16:23:18.605Z,22.50
2019-05-23T16:25:45.345Z,22.40
2019-05-23T16:28:16.737Z,22.20
2019-05-23T16:30:44.098Z,22.20
2019-05-23T16:33:11.129Z,22.20
2019-05-23T16:35:38.167Z,22.20
2019-05-23T16:38:06.017Z,22.20
2019-05-23T16:40:33.811Z,22.20
2019-05-23T16:43:01.420Z,22.20
2019-05-23T16:45:29.080Z,22.10
2019-05-23T16:47:56.113Z,22.20
2019-05-23T16:50:23.235Z,22.50
2019-05-23T16:52:50.203Z,22.80
2019-05-23T16:55:19.112Z,22.70
2019-05-23T16:57:53.862Z,22.60
2019-05-23T17:00:35.387Z,22.50
2019-05-23T17:03:13.243Z,22.30
2019-05-23T17:05:45.727Z,22.20
2019-05-23T17:08:33.412Z,22.10
2019-05-23T17:11:02.301Z,22.00
2019-05-23T17:13:34.022Z,21.90
2019-05-23T17:16:03.287Z,21.80
2019-05-23T17:18:38.604Z,21.80
2019-05-23T17:21:07.493Z,21.70
2019-05-23T17:23:42.663Z,21.60
2019-05-23T17:26:12.982Z,21.60
2019-05-23T17:28:41.942Z,21.50
2019-05-23T17:31:10.992Z,21.50
2019-05-23T17:33:38.119Z,21.40
2019-05-23T17:36:05.550Z,21.40
2019-05-23T17:38:32.824Z,21.40
2019-05-23T17:41:00.084Z,21.30
2019-05-23T17:43:27.371Z,21.30
2019-05-23T17:45:54.463Z,21.20
2019-05-23T17:48:22.022Z,21.20
2019-05-23T17:50:50.280Z,21.20
2019-05-23T17:53:18.072Z,21.10
2019-05-23T17:55:45.914Z,21.10
2019-05-23T17:58:12.981Z,21.10
2019-05-23T18:00:41.938Z,21.00
2019-05-23T18:03:09.386Z,21.00
2019-05-23T18:05:37.103Z,21.00
2019-05-23T18:08:05.289Z,21.00
2019-05-23T18:10:44.740Z,20.90
2019-05-23T18:13:05.153Z,20.90
2019-05-23T18:15:32.230Z,20.80
2019-05-23T18:17:59.300Z,20.80
2019-05-23T18:20:27.822Z,20.80
2019-05-23T18:22:54.785Z,20.70
2019-05-23T18:25:22.375Z,20.70
2019-05-23T18:27:49.496Z,20.70
2019-05-23T18:30:21.671Z,20.60
2019-05-23T18:32:49.417Z,20.60
2019-05-23T18:35:17.413Z,20.50
2019-05-23T18:37:45.102Z,20.50
2019-05-23T18:40:12.764Z,20.40
2019-05-23T18:42:40.899Z,20.40
2019-05-23T18:45:10.055Z,20.30
2019-05-23T18:47:42.263Z,20.30
2019-05-23T18:50:12.512Z,20.30
2019-05-23T18:52:40.305Z,20.20
2019-05-23T18:55:08.069Z,20.10
2019-05-23T18:57:36.404Z,20.10
2019-05-23T19:00:04.615Z,20.00
2019-05-23T19:02:31.865Z,19.90
2019-05-23T19:04:59.005Z,19.80
2019-05-23T19:07:26.320Z,19.70
2019-05-23T19:09:53.693Z,19.70
2019-05-23T19:12:20.876Z,19.60
2019-05-23T19:14:47.918Z,19.50
2019-05-23T19:17:14.949Z,19.40
2019-05-23T19:19:43.143Z,19.30
2019-05-23T19:22:11.802Z,19.20
2019-05-23T19:24:38.899Z,19.10
2019-05-23T19:27:06.728Z,19.00
2019-05-23T19:29:35.949Z,19.00
2019-05-23T19:32:03.877Z,18.90
2019-05-23T19:34:31.193Z,18.70
2019-05-23T19:36:58.354Z,18.60
2019-05-23T19:39:26.041Z,18.50
2019-05-23T19:41:53.126Z,18.40
2019-05-23T19:44:20.144Z,18.40
2019-05-23T19:46:47.173Z,18.40
2019-05-23T19:49:14.854Z,18.30
2019-05-23T19:51:41.967Z,18.20
2019-05-23T19:54:09.526Z,18.10
2019-05-23T19:56:37.332Z,18.10
2019-05-23T19:59:04.652Z,18.00
2019-05-23T20:01:33.813Z,17.90
2019-05-23T20:04:00.836Z,17.80
2019-05-23T20:06:29.361Z,17.70
2019-05-23T20:08:57.048Z,17.70
2019-05-23T20:11:24.703Z,17.70
2019-05-23T20:13:51.917Z,17.60
2019-05-23T20:16:18.998Z,17.50
2019-05-23T20:18:45.999Z,17.50
2019-05-23T20:21:13.092Z,17.50
2019-05-23T20:23:40.251Z,17.40
2019-05-23T20:26:08.770Z,17.40
2019-05-23T20:28:39.657Z,17.30
2019-05-23T20:31:05.118Z,17.30
2019-05-23T20:33:32.584Z,17.20
2019-05-23T20:36:02.183Z,17.20
2019-05-23T20:38:29.527Z,17.10
2019-05-23T20:40:56.659Z,17.10
2019-05-23T20:43:25.135Z,17.10
2019-05-23T20:45:52.389Z,17.10
2019-05-23T20:48:19.748Z,17.00
2019-05-23T20:50:46.681Z,17.00
2019-05-23T20:53:13.635Z,16.90
2019-05-23T20:55:42.044Z,16.80
2019-05-23T20:58:08.940Z,16.70
2019-05-23T21:00:56.318Z,16.70
2019-05-23T21:03:25.549Z,16.60
2019-05-23T21:05:52.813Z,16.60
2019-05-23T21:08:19.932Z,16.60
2019-05-23T21:10:47.577Z,16.60
2019-05-23T21:13:14.604Z,16.60
2019-05-23T21:15:41.603Z,16.50
2019-05-23T21:18:08.642Z,16.50
2019-05-23T21:20:35.726Z,16.40
2019-05-23T21:23:03.246Z,16.40
2019-05-23T21:25:31.391Z,16.40
2019-05-23T21:27:58.708Z,16.30
2019-05-23T21:30:25.894Z,16.30
2019-05-23T21:32:52.937Z,16.30
2019-05-23T21:35:19.916Z,16.20
2019-05-23T21:37:48.005Z,16.20
2019-05-23T21:40:22.735Z,16.20
2019-05-23T21:42:49.866Z,16.20
2019-05-23T21:45:16.992Z,16.20
2019-05-23T21:47:43.993Z,16.10
2019-05-23T21:50:11.362Z,16.10
2019-05-23T21:52:38.617Z,16.10
2019-05-23T21:55:05.610Z,16.00
2019-05-23T21:57:32.532Z,15.90
2019-05-23T21:59:59.474Z,15.90
2019-05-23T22:02:32.592Z,15.90
2019-05-23T22:05:02.976Z,15.90
2019-05-23T22:07:30.421Z,15.90
2019-05-23T22:09:57.478Z,15.90
2019-05-23T22:12:24.836Z,15.80
2019-05-23T22:14:52.733Z,15.80
2019-05-23T22:17:21.691Z,15.70
2019-05-23T22:19:50.513Z,15.70
2019-05-23T22:22:17.567Z,15.60
2019-05-23T22:24:44.478Z,15.70
2019-05-23T22:27:12.314Z,15.70
2019-05-23T22:29:39.406Z,15.60
2019-05-23T22:32:09.885Z,15.70
2019-05-23T22:34:44.969Z,15.60
2019-05-23T22:37:13.771Z,15.60
2019-05-23T22:39:41.087Z,15.60
2019-05-23T22:42:08.893Z,15.50
2019-05-23T22:44:35.938Z,15.60
2019-05-23T22:47:05.005Z,15.50
2019-05-23T22:49:33.481Z,15.50
2019-05-23T22:52:01.306Z,15.50
2019-05-23T22:54:28.603Z,15.50
2019-05-23T22:56:55.706Z,15.40
2019-05-23T22:59:23.220Z,15.40
2019-05-23T23:01:50.885Z,15.40
2019-05-23T23:04:18.666Z,15.30
2019-05-23T23:06:48.159Z,15.30
2019-05-23T23:09:15.612Z,15.20
2019-05-23T23:11:44.299Z,15.20
2019-05-23T23:14:13.884Z,15.20
2019-05-23T23:16:41.484Z,15.20
2019-05-23T23:19:09.406Z,15.20
2019-05-23T23:21:36.497Z,15.10
2019-05-23T23:24:03.381Z,15.10
2019-05-23T23:26:30.508Z,15.10
2019-05-23T23:28:57.930Z,15.00
2019-05-23T23:31:25.492Z,14.90
2019-05-23T23:33:53.451Z,15.00
2019-05-23T23:36:22.994Z,15.00
2019-05-23T23:38:50.961Z,14.90
2019-05-23T23:41:18.518Z,15.00
2019-05-23T23:43:58.920Z,14.90
2019-05-23T23:46:33.212Z,14.90
2019-05-23T23:49:18.928Z,14.90
2019-05-23T23:52:04.471Z,14.90
2019-05-23T23:54:50.355Z,14.90
2019-05-23T23:57:36.192Z,14.90
